Escatawpa, Mississippi
Current Conditions -  °F | °C
As of 3:53 PM on Thursday 23 Oct 2014 (Local Time) from KPQL Reporting Station
Clear Clear  
Wind Chill: 76°   Ceiling: Unl
Heat Index: 76°   Visibility: 10mi
Dew Point: 43°   Wind: 5mph
Humidity: 31%   Direction: NA
Pressure: 30.02"   Gusts: NA
Location:  30.44°N, 88.55°W
Report Text: KPQL 232053Z VRB04KT 10SM CLR 24/06 A3002 RMK AO2 SLP168 T02440061 56019
Loading
Personal Weather Stations






























Interactive Weather Map
Tropical Storm Tracking
New forecast layout! Learn more

10-Day Weather Forecast

Advertisements
Track Severe Weather on mobile